createdAt,value
2022-12-03T00:02:59.082Z,34.4
2022-12-03T00:05:02.654Z,30.8
2022-12-03T00:09:13.092Z,27.5
2022-12-03T00:12:20.222Z,31.8
2022-12-03T00:14:23.928Z,32.5
2022-12-03T00:16:27.677Z,32.7
2022-12-03T00:18:31.242Z,32.4
2022-12-03T00:20:38.045Z,39.2
2022-12-03T00:22:41.778Z,34.5
2022-12-03T00:24:45.522Z,32.8
2022-12-03T00:26:49.293Z,34.1
2022-12-03T00:28:53.040Z,36.6
2022-12-03T00:30:56.868Z,28.2
2022-12-03T00:35:07.291Z,33.9
2022-12-03T00:39:14.737Z,32.5
2022-12-03T00:41:18.503Z,34.7
2022-12-03T00:45:25.809Z,32.9
2022-12-03T00:47:29.528Z,33.3
2022-12-03T00:49:36.251Z,38.6
2022-12-03T00:51:40.023Z,31.6
2022-12-03T00:53:43.702Z,37.9
2022-12-03T00:55:47.433Z,45.8
2022-12-03T00:57:51.204Z,40.3
2022-12-03T00:59:54.952Z,36.7
2022-12-03T01:01:58.749Z,39.8
2022-12-03T01:04:05.438Z,40.6
2022-12-03T01:06:09.116Z,33.3
2022-12-03T01:08:12.893Z,38.1
2022-12-03T01:09:16.250Z,44.2
2022-12-03T01:11:19.969Z,43.6
2022-12-03T01:15:27.412Z,42.9
2022-12-03T01:17:34.172Z,38.5
2022-12-03T01:19:37.801Z,33.4
2022-12-03T01:21:41.482Z,35.1
2022-12-03T01:23:45.232Z,33.8
2022-12-03T01:25:48.955Z,37.2
2022-12-03T01:27:52.688Z,39.8
2022-12-03T01:29:56.395Z,37.3
2022-12-03T01:32:03.062Z,39.2
2022-12-03T01:34:06.758Z,40.8
2022-12-03T01:36:10.474Z,31
2022-12-03T01:38:14.116Z,37.7
2022-12-03T01:40:17.773Z,37.5
2022-12-03T01:42:21.427Z,34.7
2022-12-03T01:44:25.189Z,42
2022-12-03T01:46:32.120Z,40.9
2022-12-03T01:48:35.781Z,39.1
2022-12-03T01:50:39.423Z,37.5
2022-12-03T01:52:43.083Z,30.9
2022-12-03T01:54:46.739Z,33.4
2022-12-03T01:56:50.395Z,35.5
2022-12-03T01:58:54.095Z,35.6
2022-12-03T02:01:00.801Z,33.1
2022-12-03T02:03:04.496Z,35.9
2022-12-03T02:05:08.211Z,30.5
2022-12-03T02:07:30.635Z,41.2
2022-12-03T02:09:34.258Z,37.1
2022-12-03T02:11:37.934Z,35.4
2022-12-03T02:13:44.934Z,37.1
2022-12-03T02:15:48.504Z,38
2022-12-03T02:17:52.150Z,40.5
2022-12-03T02:19:55.844Z,36
2022-12-03T02:21:59.541Z,36.6
2022-12-03T02:24:03.335Z,36.8
2022-12-03T02:26:07.013Z,34.2
2022-12-03T02:28:13.729Z,33.9
2022-12-03T02:30:17.410Z,33.5
2022-12-03T02:32:21.068Z,35.4
2022-12-03T02:34:24.738Z,40.5
2022-12-03T02:36:28.460Z,34.3
2022-12-03T02:38:32.224Z,35.6
2022-12-03T02:40:35.957Z,33.3
2022-12-03T02:42:42.728Z,32.5
2022-12-03T02:44:46.405Z,41.1
2022-12-03T02:46:50.161Z,33.6
2022-12-03T02:48:53.846Z,31.6
2022-12-03T02:50:57.586Z,33.4
2022-12-03T02:53:01.316Z,32.2
2022-12-03T02:55:04.961Z,34.9
2022-12-03T02:57:11.706Z,31.5
2022-12-03T02:59:15.396Z,35
2022-12-03T03:02:22.583Z,30.8
2022-12-03T03:04:26.091Z,40.4
2022-12-03T03:06:29.778Z,34.4
2022-12-03T03:08:33.514Z,33.9
2022-12-03T03:10:40.322Z,39.3
2022-12-03T03:12:43.979Z,42.1
2022-12-03T03:14:47.685Z,40.1
2022-12-03T03:16:51.522Z,35.8
2022-12-03T03:18:55.195Z,36
2022-12-03T03:20:58.962Z,33.5
2022-12-03T03:23:02.684Z,35.9
2022-12-03T03:25:09.446Z,39.8
2022-12-03T03:27:13.181Z,33.8
2022-12-03T03:29:16.940Z,62.1
2022-12-03T03:31:20.723Z,44
2022-12-03T03:33:24.401Z,37.3
2022-12-03T03:35:28.063Z,45.4
2022-12-03T03:37:31.775Z,38.8
2022-12-03T03:39:38.529Z,39.3
2022-12-03T03:41:42.253Z,37.9
2022-12-03T03:43:45.952Z,40.1
2022-12-03T03:47:53.370Z,44.1
2022-12-03T03:49:57.124Z,36.5
2022-12-03T03:52:02.286Z,44.4
2022-12-03T03:54:09.043Z,36.7
2022-12-03T03:56:12.681Z,46.3
2022-12-03T03:58:16.335Z,45.6
2022-12-03T03:59:19.785Z,45.9
2022-12-03T04:01:23.629Z,42.4
2022-12-03T04:05:30.933Z,43.5
2022-12-03T04:07:37.883Z,41.3
2022-12-03T04:09:41.574Z,47
2022-12-03T04:11:45.293Z,44.8
2022-12-03T04:13:48.948Z,41.6
2022-12-03T04:15:52.704Z,38.1
2022-12-03T04:17:56.361Z,46.8
2022-12-03T04:20:00.116Z,41.3
2022-12-03T04:22:07.004Z,41.1
2022-12-03T04:24:10.719Z,47.4
2022-12-03T04:26:14.504Z,42
2022-12-03T04:28:18.248Z,43.4
2022-12-03T04:30:21.972Z,40.7
2022-12-03T04:32:25.639Z,41.2
2022-12-03T04:40:44.250Z,34.6
2022-12-03T04:42:47.941Z,44.5
2022-12-03T04:44:51.985Z,34
2022-12-03T04:46:55.291Z,42.2
2022-12-03T04:48:58.981Z,41.7
2022-12-03T04:51:05.778Z,37.2
2022-12-03T04:53:09.461Z,39.8
2022-12-03T04:55:13.188Z,38
2022-12-03T04:56:16.546Z,39.2
2022-12-03T04:58:20.319Z,37.9
2022-12-03T05:00:24.044Z,40.7
2022-12-03T05:02:27.859Z,41.6
2022-12-03T05:04:34.578Z,39.8
2022-12-03T05:06:38.289Z,47.6
2022-12-03T05:10:45.790Z,38.4
2022-12-03T05:12:49.404Z,39.1
2022-12-03T05:14:53.463Z,37.3
2022-12-03T05:19:03.749Z,34.8
2022-12-03T05:25:15.009Z,36.2
2022-12-03T05:27:23.469Z,34.1
2022-12-03T05:29:22.352Z,33.2
2022-12-03T05:31:26.099Z,34.2
2022-12-03T05:35:36.566Z,34.2
2022-12-03T05:37:40.312Z,39.8
2022-12-03T05:39:43.961Z,40.1
2022-12-03T05:41:47.638Z,33.3
2022-12-03T05:43:51.322Z,38.3
2022-12-03T05:45:55.070Z,34.6
2022-12-03T05:48:01.811Z,37.8
2022-12-03T05:50:05.467Z,33.6
2022-12-03T05:52:09.194Z,39.9
2022-12-03T05:56:43.123Z,39.5
2022-12-03T06:07:08.509Z,38.1
2022-12-03T06:11:12.353Z,39.5
2022-12-03T06:13:16.089Z,41
2022-12-03T06:15:22.828Z,39.9
2022-12-03T06:17:26.566Z,49.7
2022-12-03T06:19:30.266Z,40.1
2022-12-03T06:21:33.984Z,43.5
2022-12-03T06:23:37.749Z,42.3
2022-12-03T06:25:41.489Z,90.5
2022-12-03T06:27:45.143Z,50.1
2022-12-03T06:36:03.059Z,42.9
2022-12-03T06:38:06.744Z,69
2022-12-03T06:42:14.252Z,50.2
2022-12-03T06:46:24.835Z,37.1
2022-12-03T06:49:32.000Z,50
2022-12-03T06:53:39.329Z,41.4
2022-12-03T06:55:43.018Z,37.4
2022-12-03T06:57:49.730Z,74
2022-12-03T06:59:53.653Z,44.4
2022-12-03T07:01:57.146Z,39.5
2022-12-03T07:04:00.786Z,47.1
2022-12-03T07:06:04.546Z,41.9
2022-12-03T07:08:08.246Z,47.4
2022-12-03T07:12:18.724Z,45.9
2022-12-03T07:14:22.469Z,41.6
2022-12-03T07:26:48.027Z,50.5
2022-12-03T07:32:59.079Z,38.9
2022-12-03T07:35:02.818Z,45.3
2022-12-03T07:37:06.510Z,39.4
2022-12-03T07:39:10.250Z,45.3
2022-12-03T07:41:17.040Z,48.4
2022-12-03T07:46:28.078Z,45.5
2022-12-03T07:50:35.399Z,43.8
2022-12-03T07:52:39.104Z,43.9
2022-12-03T07:54:45.915Z,46
2022-12-03T07:56:49.591Z,48
2022-12-03T07:58:53.249Z,42.1
2022-12-03T08:03:00.628Z,41.9
2022-12-03T08:05:04.293Z,45.9
2022-12-03T08:07:08.052Z,45.1
2022-12-03T08:09:16.252Z,47.2
2022-12-03T08:11:18.594Z,50.9
2022-12-03T08:13:22.332Z,43.9
2022-12-03T08:15:25.981Z,50.2
2022-12-03T08:17:29.728Z,39.6
2022-12-03T08:19:33.399Z,41.9
2022-12-03T08:21:37.142Z,42.7
2022-12-03T08:25:47.658Z,40.3
2022-12-03T08:29:54.992Z,54.2
2022-12-03T08:31:58.724Z,48.4
2022-12-03T08:34:02.455Z,44.5
2022-12-03T08:36:06.181Z,52.4
2022-12-03T08:38:13.079Z,53
2022-12-03T08:40:16.693Z,52.6
2022-12-03T08:42:20.441Z,49.6
2022-12-03T08:45:27.693Z,42.7
2022-12-03T08:49:35.086Z,44.4
2022-12-03T08:51:41.938Z,47.3
2022-12-03T08:53:45.570Z,42.6
2022-12-03T08:55:49.257Z,47.5
2022-12-03T08:57:53.003Z,49.9
2022-12-03T08:59:56.716Z,49.3
2022-12-03T09:02:00.492Z,42.5
2022-12-03T09:04:04.253Z,43.2
2022-12-03T09:06:10.994Z,46.6
2022-12-03T09:08:14.711Z,50
2022-12-03T09:10:18.416Z,43
2022-12-03T09:12:22.147Z,41.8
2022-12-03T09:14:25.994Z,42.3
2022-12-03T09:16:29.678Z,56.5
2022-12-03T09:18:33.236Z,43
2022-12-03T09:20:40.005Z,45
2022-12-03T09:22:43.767Z,40.9
2022-12-03T09:24:47.676Z,43.4
2022-12-03T09:26:51.220Z,38.2
2022-12-03T09:28:54.923Z,43.2
2022-12-03T09:33:02.431Z,42
2022-12-03T09:35:09.205Z,38.1
2022-12-03T09:37:12.845Z,40.9
2022-12-03T09:39:16.478Z,49.4
2022-12-03T09:41:22.758Z,40.3
2022-12-03T09:45:30.327Z,37.2
2022-12-03T09:50:31.671Z,44.6
2022-12-03T09:52:35.198Z,40.8
2022-12-03T09:54:42.811Z,37.3
2022-12-03T09:57:01.373Z,46.3
2022-12-03T10:03:15.699Z,43.6
2022-12-03T10:05:19.374Z,50.8
2022-12-03T10:07:23.126Z,44.9
2022-12-03T10:09:26.839Z,48.6
2022-12-03T10:11:30.495Z,44.5
2022-12-03T10:13:34.265Z,44.5
2022-12-03T10:15:37.990Z,44
2022-12-03T10:17:44.871Z,45.4
2022-12-03T10:19:48.544Z,42.2
2022-12-03T10:21:52.306Z,44.8
2022-12-03T10:23:56.080Z,38.2
2022-12-03T10:25:59.869Z,37.4
2022-12-03T10:28:03.576Z,40.9
2022-12-03T10:30:07.273Z,38
2022-12-03T10:32:13.962Z,41.7
2022-12-03T10:34:17.726Z,36.1
2022-12-03T10:36:21.513Z,43.1
2022-12-03T10:38:25.218Z,38.1
2022-12-03T10:40:28.962Z,38.3
2022-12-03T10:42:32.623Z,31.3
2022-12-03T10:44:36.276Z,39.4
2022-12-03T10:46:43.197Z,35.6
2022-12-03T10:48:46.704Z,28
2022-12-03T10:50:50.398Z,30.9
2022-12-03T10:51:53.833Z,35.6
2022-12-03T10:53:57.584Z,31.2
2022-12-03T10:56:01.333Z,33
2022-12-03T10:58:05.039Z,36.6
2022-12-03T11:00:11.861Z,35.7
2022-12-03T11:02:15.509Z,32.1
2022-12-03T11:04:19.165Z,32.8
2022-12-03T11:06:22.906Z,43.5
2022-12-03T11:08:26.662Z,36.9
2022-12-03T11:10:30.426Z,44.7
2022-12-03T11:12:34.160Z,41.8
2022-12-03T11:14:40.903Z,53.5
2022-12-03T11:16:44.523Z,39.1
2022-12-03T11:18:48.282Z,37
2022-12-03T11:20:52.034Z,54.8
2022-12-03T11:22:55.823Z,35.6
2022-12-03T11:24:59.547Z,32
2022-12-03T11:27:03.282Z,36.5
2022-12-03T11:29:10.017Z,37.7
2022-12-03T11:31:13.820Z,33.8
2022-12-03T11:33:17.387Z,32.2
2022-12-03T11:35:21.068Z,37.7
2022-12-03T11:37:24.787Z,113.7
2022-12-03T11:39:28.548Z,62.4
2022-12-03T11:41:32.299Z,45.3
2022-12-03T11:45:42.832Z,43
2022-12-03T11:47:46.579Z,41.1
2022-12-03T11:48:50.025Z,40.1
2022-12-03T11:50:53.684Z,40.4
2022-12-03T11:52:57.413Z,36.7
2022-12-03T11:55:01.187Z,44.3
2022-12-03T11:57:07.985Z,44.1
2022-12-03T11:59:11.737Z,56.3
2022-12-03T12:01:15.485Z,45.9
2022-12-03T12:03:19.332Z,44.3
2022-12-03T12:05:22.893Z,50.9
2022-12-03T12:07:26.622Z,55.6
2022-12-03T12:09:30.322Z,58.3
2022-12-03T12:11:37.235Z,63.9
2022-12-03T12:13:40.956Z,67.4
2022-12-03T12:15:44.602Z,63.6
2022-12-03T12:17:48.224Z,69.9
2022-12-03T12:19:54.533Z,62.5
2022-12-03T12:21:55.578Z,61.2
2022-12-03T12:23:59.287Z,70.1
2022-12-03T12:26:06.114Z,58.6
2022-12-03T12:28:09.754Z,67.2
2022-12-03T12:30:13.409Z,52.3
2022-12-03T12:32:17.165Z,58
2022-12-03T12:34:20.906Z,59.2
2022-12-03T12:36:24.757Z,61.9
2022-12-03T12:38:28.412Z,49.2
2022-12-03T12:40:35.255Z,63.2
2022-12-03T12:42:38.910Z,59.4
2022-12-03T12:44:42.625Z,44.9
2022-12-03T12:45:46.115Z,55.1
2022-12-03T12:47:49.979Z,47.2
2022-12-03T12:51:57.387Z,51.3
2022-12-03T12:54:04.247Z,54.7
2022-12-03T12:56:07.924Z,43.8
2022-12-03T12:58:11.702Z,35
2022-12-03T13:00:15.460Z,44.4
2022-12-03T13:02:19.253Z,34.5
2022-12-03T13:04:22.968Z,37.6
2022-12-03T13:06:26.591Z,38
2022-12-03T13:10:37.239Z,35
2022-12-03T13:12:40.984Z,38.2
2022-12-03T13:14:44.742Z,36.2
2022-12-03T13:16:48.471Z,37.9
2022-12-03T13:18:52.170Z,34.7
2022-12-03T13:20:55.934Z,32.1
2022-12-03T13:23:02.757Z,34
2022-12-03T13:25:06.490Z,32.4
2022-12-03T13:31:17.626Z,28.8
2022-12-03T13:33:21.275Z,30.1
2022-12-03T13:35:24.954Z,32.2
2022-12-03T13:37:31.902Z,28.5
2022-12-03T13:39:35.595Z,35.5
2022-12-03T13:43:45.455Z,37.7
2022-12-03T13:45:49.292Z,32.1
2022-12-03T13:47:52.990Z,32.9
2022-12-03T13:49:59.213Z,28.7
2022-12-03T13:52:02.848Z,35.1
2022-12-03T13:54:08.436Z,36.5
2022-12-03T13:56:12.845Z,41.9
2022-12-03T14:00:20.251Z,44.6
2022-12-03T14:02:26.617Z,35.6
2022-12-03T14:08:40.195Z,40.2
2022-12-03T14:10:43.946Z,43.6
2022-12-03T14:12:47.689Z,50.5
2022-12-03T14:20:03.127Z,48.5
2022-12-03T14:22:06.768Z,47.3
2022-12-03T14:24:12.961Z,55.2
2022-12-03T14:26:16.731Z,55.7
2022-12-03T14:28:20.444Z,60.4
2022-12-03T14:30:26.733Z,56
2022-12-03T14:32:30.474Z,57.3
2022-12-03T14:34:34.141Z,55.9
2022-12-03T14:36:40.455Z,59.2
2022-12-03T14:38:44.198Z,56.2
2022-12-03T14:40:47.946Z,63
2022-12-03T14:42:54.222Z,61
2022-12-03T14:44:57.945Z,68
2022-12-03T14:47:01.625Z,58
2022-12-03T14:49:07.876Z,57.9
2022-12-03T14:51:11.592Z,68.7
2022-12-03T14:53:15.231Z,62.3
2022-12-03T14:55:21.412Z,66.7
2022-12-03T14:57:25.089Z,66.7
2022-12-03T14:59:28.848Z,70
2022-12-03T15:01:35.214Z,55.6
2022-12-03T15:03:38.741Z,55.8
2022-12-03T15:05:42.509Z,58.2
2022-12-03T15:07:48.856Z,60.3
2022-12-03T15:09:52.922Z,59
2022-12-03T15:11:56.149Z,70.1
2022-12-03T15:14:02.422Z,57.9
2022-12-03T15:16:06.176Z,65.2
2022-12-03T15:18:09.825Z,76.5
2022-12-03T15:25:26.949Z,64.3
2022-12-03T15:27:30.576Z,62.5
2022-12-03T15:29:36.762Z,65.7
2022-12-03T15:31:40.549Z,74.4
2022-12-03T15:35:50.356Z,65.1
2022-12-03T15:37:54.074Z,68.1
2022-12-03T15:39:58.035Z,67.4
2022-12-03T15:44:07.650Z,56.5
2022-12-03T15:46:11.356Z,53.7
2022-12-03T15:48:17.610Z,64.5
2022-12-03T15:50:21.327Z,63.7
2022-12-03T15:52:24.964Z,58.1
2022-12-03T15:54:31.265Z,61.4
2022-12-03T15:56:35.034Z,61.8
2022-12-03T15:58:38.766Z,67.6
2022-12-03T16:00:45.110Z,62.9
2022-12-03T16:02:52.706Z,58.8
2022-12-03T16:04:52.366Z,55.3
2022-12-03T16:16:41.466Z,53.9
2022-12-03T16:18:45.228Z,70.2
2022-12-03T16:20:48.958Z,64.9
2022-12-03T16:34:56.333Z,58.4
2022-12-03T16:36:59.977Z,61.7
2022-12-03T16:39:12.049Z,56.4
2022-12-03T16:41:15.734Z,65.2
2022-12-03T16:43:19.470Z,61.7
2022-12-03T16:45:25.727Z,68.5
2022-12-03T16:47:33.428Z,59.8
2022-12-03T16:49:33.150Z,68.9
2022-12-03T16:57:52.978Z,58
2022-12-03T16:59:56.930Z,60.7
2022-12-03T17:02:00.518Z,61
2022-12-03T17:04:06.692Z,64.7
2022-12-03T17:06:10.461Z,55.9
2022-12-03T17:08:14.336Z,61.4
2022-12-03T17:10:20.487Z,51.9
2022-12-03T17:12:25.425Z,50.6
2022-12-03T17:14:33.007Z,55.4
2022-12-03T17:16:34.109Z,66.3
2022-12-03T17:18:37.691Z,56.5
2022-12-03T17:20:41.432Z,53.7
2022-12-03T17:22:47.695Z,50.3
2022-12-03T17:24:51.352Z,51.6
2022-12-03T17:26:55.097Z,60.2
2022-12-03T17:31:05.186Z,52.8
2022-12-03T17:33:08.741Z,61.7
2022-12-03T17:40:24.372Z,49.8
2022-12-03T17:42:28.098Z,43.8
2022-12-03T17:44:34.328Z,54.8
2022-12-03T17:46:38.193Z,49.1
2022-12-03T17:48:41.702Z,60.7
2022-12-03T17:50:47.945Z,55.7
2022-12-03T17:52:51.713Z,58.2
2022-12-03T17:57:01.568Z,60.5
2022-12-03T17:59:05.269Z,42.8
2022-12-03T18:01:08.997Z,51.7
2022-12-03T18:05:18.935Z,57.9
2022-12-03T18:09:28.851Z,53.1
2022-12-03T18:13:36.334Z,47.6
2022-12-03T18:15:42.647Z,49.4
2022-12-03T18:17:46.295Z,52.4
2022-12-03T18:19:50.058Z,52.5
2022-12-03T18:21:56.286Z,48.3
2022-12-03T18:24:00.122Z,56.7
2022-12-03T18:26:03.810Z,50.8
2022-12-03T18:28:10.105Z,54.6
2022-12-03T18:30:13.830Z,55.9
2022-12-03T18:32:28.259Z,53.8
2022-12-03T18:34:23.804Z,41.4
2022-12-03T18:36:27.461Z,44.9
2022-12-03T18:38:31.190Z,47.7
2022-12-03T18:40:37.356Z,51.7
2022-12-03T18:42:41.131Z,46.6
2022-12-03T18:44:49.492Z,47.5
2022-12-03T18:46:53.825Z,49.2
2022-12-03T18:48:54.916Z,45
2022-12-03T18:50:58.702Z,51.8
2022-12-03T18:53:04.919Z,44.8
2022-12-03T18:55:08.681Z,55.5
2022-12-03T18:57:12.414Z,60.3
2022-12-03T18:59:18.742Z,40.5
2022-12-03T19:01:22.571Z,44.7
2022-12-03T19:03:26.306Z,47.6
2022-12-03T19:08:31.644Z,44.4
2022-12-03T19:10:35.379Z,49.8
2022-12-03T19:12:39.059Z,55.3
2022-12-03T19:16:49.088Z,51.1
2022-12-03T19:20:58.991Z,45.8
2022-12-03T19:23:02.759Z,48.1
2022-12-03T19:25:06.493Z,45.9
2022-12-03T19:27:12.743Z,53.3
2022-12-03T19:29:16.514Z,48.2
2022-12-03T19:31:20.213Z,47.7
2022-12-03T19:33:28.500Z,46.5
2022-12-03T19:35:30.140Z,51.7
2022-12-03T19:37:33.745Z,42.9
2022-12-03T19:39:39.947Z,50.6
2022-12-03T19:47:57.297Z,147.3
2022-12-03T19:50:01.064Z,52.8
2022-12-03T19:54:11.085Z,50.5
2022-12-03T20:11:41.202Z,54.2
2022-12-03T20:18:00.726Z,53.3
2022-12-03T20:20:07.010Z,49.2
2022-12-03T20:22:10.726Z,48.5
2022-12-03T20:26:20.542Z,53.1
2022-12-03T20:28:24.297Z,48.4
2022-12-03T20:30:28.025Z,56.4
2022-12-03T20:32:34.230Z,45.9
2022-12-03T20:34:37.983Z,55
2022-12-03T20:36:41.725Z,48.9
2022-12-03T20:38:48.025Z,50.8
2022-12-03T20:40:51.767Z,48.9
2022-12-03T20:42:55.515Z,52.1
2022-12-03T20:48:02.261Z,54
2022-12-03T20:52:09.667Z,49.8
2022-12-03T20:54:15.941Z,50.9
2022-12-03T20:56:19.712Z,54.5
2022-12-03T20:58:23.455Z,50.4
2022-12-03T21:05:39.871Z,61.6
2022-12-03T21:07:43.641Z,59.8
2022-12-03T21:09:49.872Z,52.5
2022-12-03T21:11:53.666Z,57.8
2022-12-03T21:18:07.522Z,54.5
2022-12-03T21:20:11.163Z,53.4
2022-12-03T21:22:17.690Z,49.1
2022-12-03T21:24:21.177Z,67.3
2022-12-03T21:28:31.229Z,57.6
2022-12-03T21:32:38.603Z,62.4
2022-12-03T21:34:44.861Z,50.2
2022-12-03T21:36:48.518Z,49.5
2022-12-03T21:38:52.250Z,69.2
2022-12-03T21:40:58.539Z,51
2022-12-03T21:43:02.302Z,60.7
2022-12-03T21:45:06.014Z,57.6
2022-12-03T21:47:14.226Z,53.8
2022-12-03T21:49:16.068Z,57.1
2022-12-03T21:51:19.799Z,59.4
2022-12-03T21:55:29.463Z,64.8
2022-12-03T21:57:33.126Z,61
2022-12-03T21:59:39.403Z,55.4
2022-12-03T22:01:46.856Z,54.8
2022-12-03T22:03:46.783Z,62.3
2022-12-03T22:05:53.074Z,58.5
2022-12-03T22:07:56.899Z,66.4
2022-12-03T22:10:00.451Z,62.8
2022-12-03T22:12:06.625Z,63.9
2022-12-03T22:14:10.399Z,57.8
2022-12-03T22:18:20.430Z,58.3
2022-12-03T22:22:27.791Z,64.5
2022-12-03T22:26:37.797Z,69.8
2022-12-03T22:28:41.522Z,65.1
2022-12-03T22:30:47.866Z,64.1
2022-12-03T22:32:51.556Z,64.6
2022-12-03T22:34:55.292Z,59.8
2022-12-03T22:37:01.490Z,60.8
2022-12-03T22:41:08.988Z,62.6
2022-12-03T22:43:15.290Z,61.9
2022-12-03T22:45:19.077Z,63.6
2022-12-03T22:47:22.789Z,61.6
2022-12-03T22:49:29.047Z,58.7
2022-12-03T22:51:32.799Z,57.8
2022-12-03T22:53:36.539Z,58.2
2022-12-03T22:55:42.779Z,67.3
2022-12-03T22:57:46.452Z,59.5
2022-12-03T22:59:50.085Z,67
2022-12-03T23:01:56.293Z,68.2
2022-12-03T23:04:00.200Z,60.6
2022-12-03T23:06:03.806Z,52.6
2022-12-03T23:08:10.135Z,67
2022-12-03T23:10:13.826Z,62.7
2022-12-03T23:12:17.571Z,66.2
2022-12-03T23:14:23.857Z,69
2022-12-03T23:16:27.676Z,65.9
2022-12-03T23:18:31.339Z,65.7
2022-12-03T23:20:37.540Z,65.7
2022-12-03T23:22:41.299Z,61.7
2022-12-03T23:24:45.049Z,68.1
2022-12-03T23:26:51.246Z,68.4
2022-12-03T23:28:55.005Z,71.9
2022-12-03T23:30:58.786Z,63.3
2022-12-03T23:33:04.926Z,70.7
2022-12-03T23:35:08.573Z,61.5
2022-12-03T23:37:12.337Z,57.5
2022-12-03T23:39:18.600Z,64.3
2022-12-03T23:41:22.333Z,66.1
2022-12-03T23:43:25.954Z,64.3
2022-12-03T23:45:32.164Z,59.4
2022-12-03T23:47:35.906Z,60.9
2022-12-03T23:49:39.642Z,62.5
2022-12-03T23:51:45.938Z,59
2022-12-03T23:53:49.672Z,63.9
2022-12-03T23:57:59.655Z,66
